Time;durP1;ratioP1;P1;durP2;ratioP2;P2;SDS_P1;SDS_P2;PMS_P1;PMS_P2;Temp;Humidity;BMP_temperature;BMP_pressure;BME280_temperature;BME280_humidity;BME280_pressure;Samples;Min_cycle;Max_cycle;Signal;HPM_P1;HPM_P2
2023/09/05 00:01:59;;;;;;;5.70;2.78;;;;;;;17.45;78.15;94372.72;5110297;28;20450;-61
2023/09/05 00:04:28;;;;;;;5.00;2.80;;;;;;;17.50;77.26;94366.59;5108690;28;20050;-61
2023/09/05 00:06:56;;;;;;;4.75;2.92;;;;;;;17.31;78.34;94374.00;5110025;28;20050;-61
2023/09/05 00:09:23;;;;;;;4.80;2.80;;;;;;;17.27;78.32;94380.91;5110061;28;20040;-61
2023/09/05 00:11:50;;;;;;;5.32;2.90;;;;;;;17.34;76.91;94369.53;5110084;27;20036;-61
2023/09/05 00:14:18;;;;;;;5.68;2.70;;;;;;;17.27;78.36;94375.34;5109628;28;20055;-60
2023/09/05 00:16:45;;;;;;;7.03;4.10;;;;;;;17.21;79.14;94371.59;5110004;28;20445;-61
2023/09/05 00:19:12;;;;;;;5.20;2.72;;;;;;;17.09;81.22;94367.63;5110088;28;20047;-61
2023/09/05 00:21:39;;;;;;;4.43;2.70;;;;;;;17.00;81.21;94367.50;5109460;27;20040;-61
2023/09/05 00:24:36;;;;;;;4.95;2.75;;;;;;;17.01;80.30;94358.00;5110085;28;20073;-61
2023/09/05 00:27:06;;;;;;;4.57;2.67;;;;;;;17.03;79.77;94358.31;5106826;28;20807;-61
2023/09/05 00:29:33;;;;;;;4.67;2.77;;;;;;;16.92;81.52;94364.19;5088966;28;20250;-61
2023/09/05 00:32:00;;;;;;;6.45;2.67;;;;;;;16.82;82.02;94365.31;5088930;28;20141;-61
2023/09/05 00:34:28;;;;;;;4.30;2.60;;;;;;;16.80;82.23;94364.97;5089050;28;20051;-61
2023/09/05 00:36:55;;;;;;;5.63;2.97;;;;;;;16.90;79.94;94363.88;5089038;28;20048;-61
2023/09/05 00:39:25;;;;;;;4.63;2.58;;;;;;;16.89;80.70;94362.34;5087825;28;20052;-60
2023/09/05 00:41:53;;;;;;;4.80;2.87;;;;;;;16.82;80.33;94360.56;5088940;28;20715;-61
2023/09/05 00:44:20;;;;;;;4.97;2.58;;;;;;;16.75;81.64;94361.53;5088836;28;20048;-61
2023/09/05 00:46:47;;;;;;;4.63;2.47;;;;;;;16.63;82.44;94351.22;5089259;28;20485;-61
2023/09/05 00:49:15;;;;;;;5.20;2.60;;;;;;;16.66;81.33;94353.13;5089419;28;20048;-61
2023/09/05 00:51:49;;;;;;;6.70;2.75;;;;;;;16.74;79.64;94350.88;5088020;28;20264;-61
2023/09/05 00:54:16;;;;;;;4.77;2.50;;;;;;;16.71;80.60;94360.09;5089197;28;20044;-61
2023/09/05 00:56:46;;;;;;;4.47;2.38;;;;;;;16.68;80.34;94360.97;5088135;28;20599;-61
2023/09/05 00:59:13;;;;;;;5.03;2.60;;;;;;;16.73;79.45;94358.44;5089223;28;20791;-61
2023/09/05 01:01:40;;;;;;;5.30;2.40;;;;;;;16.74;79.16;94354.44;5088359;28;20036;-59
2023/09/05 01:04:07;;;;;;;4.50;2.72;;;;;;;16.73;79.58;94347.34;5089038;28;20048;-60
2023/09/05 01:06:53;;;;;;;4.63;2.50;;;;;;;16.62;79.54;94352.47;5088012;28;20051;-60
2023/09/05 01:09:27;;;;;;;4.88;2.40;;;;;;;16.73;78.13;94341.78;5088477;28;20048;-60
2023/09/05 01:11:56;;;;;;;4.80;2.30;;;;;;;16.67;78.48;94354.66;5088639;28;20449;-60
2023/09/05 01:14:23;;;;;;;4.57;2.22;;;;;;;16.70;77.55;94350.22;5088410;28;20305;-60
2023/09/05 01:16:49;;;;;;;4.57;2.40;;;;;;;16.68;77.37;94364.53;5088634;28;20036;-60
2023/09/05 01:19:19;;;;;;;5.57;2.53;;;;;;;16.71;77.34;94346.25;5088536;28;20060;-59
2023/09/05 01:22:21;;;;;;;5.15;2.90;;;;;;;16.71;76.65;94351.78;5088711;28;20538;-60
2023/09/05 01:24:49;;;;;;;5.07;2.78;;;;;;;16.68;76.37;94347.13;5067335;28;20617;-60
2023/09/05 01:27:22;;;;;;;9.77;2.60;;;;;;;16.64;76.05;94354.78;5067952;28;20097;-59
2023/09/05 01:29:50;;;;;;;4.38;2.35;;;;;;;16.62;76.03;94352.47;5068252;28;20094;-60
2023/09/05 01:32:19;;;;;;;4.33;2.23;;;;;;;16.66;74.69;94355.09;5068231;28;20044;-59
2023/09/05 01:34:47;;;;;;;4.15;2.40;;;;;;;16.57;75.61;94344.69;5068093;28;20041;-60
2023/09/05 01:37:15;;;;;;;4.22;2.20;;;;;;;16.55;74.74;94349.91;5068579;28;20428;-59
2023/09/05 01:39:42;;;;;;;3.83;2.20;;;;;;;16.51;75.20;94347.25;5067376;28;20821;-60
2023/09/05 01:42:09;;;;;;;4.40;2.13;;;;;;;16.53;74.66;94344.81;5068371;28;20162;-60
2023/09/05 01:44:38;;;;;;;4.20;2.50;;;;;;;16.52;74.59;94346.03;5071221;28;20055;-60
2023/09/05 01:47:05;;;;;;;3.83;2.20;;;;;;;16.46;74.45;94339.50;5072560;28;20078;-60
2023/09/05 01:49:32;;;;;;;3.88;1.98;;;;;;;16.44;75.30;94327.28;5071893;28;20044;-60
2023/09/05 01:51:59;;;;;;;5.65;2.20;;;;;;;16.36;75.62;94332.31;5071846;28;20056;-60
2023/09/05 01:54:26;;;;;;;3.72;2.10;;;;;;;16.42;75.16;94336.06;5071610;28;20388;-60
2023/09/05 01:56:53;;;;;;;4.20;2.30;;;;;;;16.51;73.84;94338.94;5094375;28;20040;-60
2023/09/05 01:59:20;;;;;;;4.03;2.05;;;;;;;16.60;73.81;94343.81;5074746;28;20052;-60
2023/09/05 02:01:47;;;;;;;3.55;2.00;;;;;;;16.56;74.85;94337.63;5072108;28;20045;-60
2023/09/05 02:04:14;;;;;;;3.72;2.10;;;;;;;16.47;76.22;94331.97;5072244;28;20095;-60
2023/09/05 02:06:41;;;;;;;3.67;2.00;;;;;;;16.33;77.55;94342.25;5071065;28;20040;-59
2023/09/05 02:09:08;;;;;;;4.23;1.70;;;;;;;16.27;77.81;94337.72;5071946;28;20067;-60
2023/09/05 02:11:35;;;;;;;3.83;2.00;;;;;;;16.25;78.41;94337.38;5071682;28;20054;-60
2023/09/05 02:14:01;;;;;;;4.22;1.80;;;;;;;16.19;78.82;94337.16;5071551;28;20390;-60
2023/09/05 02:16:28;;;;;;;3.65;1.92;;;;;;;16.10;79.02;94329.50;5071470;28;20048;-60
2023/09/05 02:18:55;;;;;;;4.22;1.88;;;;;;;16.05;80.00;94337.59;5071559;28;20045;-60
2023/09/05 02:21:22;;;;;;;3.43;1.90;;;;;;;16.02;79.94;94335.69;5071346;28;20055;-59
2023/09/05 02:23:48;;;;;;;3.63;1.90;;;;;;;16.00;80.96;94327.84;5070229;28;20040;-60
2023/09/05 02:26:15;;;;;;;3.47;1.60;;;;;;;16.07;80.48;94329.59;5071816;28;20045;-60
2023/09/05 02:28:44;;;;;;;3.75;1.75;;;;;;;16.12;80.66;94337.38;5090702;28;20820;-59
2023/09/05 02:31:11;;;;;;;3.83;1.90;;;;;;;16.03;81.28;94332.47;5092008;28;20040;-60
2023/09/05 02:33:38;;;;;;;3.40;1.77;;;;;;;16.00;81.63;94335.34;5091381;28;20050;-60
2023/09/05 02:36:18;;;;;;;3.20;1.80;;;;;;;15.98;81.55;94333.81;5091396;28;20048;-60
2023/09/05 02:38:46;;;;;;;3.97;2.08;;;;;;;16.01;81.25;94331.38;5090629;28;20671;-60
2023/09/05 02:41:14;;;;;;;2.92;1.50;;;;;;;15.98;81.59;94328.28;5091706;28;20040;-60
2023/09/05 02:43:41;;;;;;;3.33;1.77;;;;;;;15.86;82.32;94331.03;5091049;28;20044;-60
2023/09/05 02:46:08;;;;;;;3.33;1.77;;;;;;;15.85;82.28;94329.47;5091428;28;20052;-60
2023/09/05 02:48:40;;;;;;;3.85;2.00;;;;;;;15.74;84.93;94332.53;5090839;28;20663;-59
2023/09/05 02:51:11;;;;;;;3.38;1.83;;;;;;;15.58;87.25;94336.13;5091020;28;20050;-60
2023/09/05 02:53:38;;;;;;;4.20;1.95;;;;;;;15.42;88.36;94331.41;5090985;28;20070;-60
2023/09/05 02:56:05;;;;;;;4.40;2.30;;;;;;;15.16;92.54;94331.28;5090539;28;20046;-59
2023/09/05 02:58:32;;;;;;;4.47;2.10;;;;;;;15.15;91.86;94340.81;5090889;28;20047;-60
2023/09/05 03:01:04;;;;;;;4.32;2.17;;;;;;;14.97;95.47;94340.50;5091112;28;20561;-60
2023/09/05 03:03:31;;;;;;;5.25;2.20;;;;;;;14.49;100.00;94339.28;5090566;28;20052;-60
2023/09/05 03:06:15;;;;;;;4.05;2.05;;;;;;;14.35;100.00;94345.91;5089241;28;20195;-60
2023/09/05 03:08:44;;;;;;;4.50;1.92;;;;;;;14.35;100.00;94343.13;5090534;28;20042;-60
2023/09/05 03:11:18;;;;;;;4.70;2.03;;;;;;;14.29;100.00;94342.09;5091117;28;20046;-60
2023/09/05 03:13:46;;;;;;;3.53;1.70;;;;;;;14.24;100.00;94348.88;5089605;28;20739;-59
2023/09/05 03:16:14;;;;;;;4.00;2.00;;;;;;;14.27;100.00;94344.50;5091058;28;20069;-60
2023/09/05 03:18:41;;;;;;;6.38;2.33;;;;;;;14.16;100.00;94353.78;5090536;28;20093;-60
2023/09/05 03:21:08;;;;;;;5.00;1.90;;;;;;;14.23;100.00;94355.63;5090502;28;20044;-60
2023/09/05 03:23:36;;;;;;;4.97;2.07;;;;;;;14.20;100.00;94356.47;5090380;28;20399;-60
2023/09/05 03:26:03;;;;;;;5.50;2.30;;;;;;;14.15;100.00;94363.28;5090473;28;20040;-60
2023/09/05 03:28:40;;;;;;;4.65;2.00;;;;;;;13.99;100.00;94358.50;5090043;28;20504;-60
2023/09/05 03:31:07;;;;;;;3.90;2.10;;;;;;;13.91;100.00;94361.84;5090286;28;20040;-60
2023/09/05 03:33:34;;;;;;;4.47;2.13;;;;;;;13.82;100.00;94364.38;5089885;28;20047;-60
2023/09/05 03:36:01;;;;;;;4.30;2.40;;;;;;;13.85;100.00;94361.56;5090186;28;20048;-60
2023/09/05 03:38:29;;;;;;;5.22;2.40;;;;;;;13.77;100.00;94362.91;5089871;28;20052;-59
2023/09/05 03:40:55;;;;;;;5.18;2.50;;;;;;;13.79;100.00;94368.78;5088967;28;20040;-59
2023/09/05 03:43:22;;;;;;;5.28;2.40;;;;;;;13.79;100.00;94363.25;5090051;28;20065;-60
2023/09/05 03:45:49;;;;;;;6.50;2.60;;;;;;;13.75;100.00;94363.31;5090126;28;20089;-60
2023/09/05 03:48:16;;;;;;;6.07;2.47;;;;;;;13.73;100.00;94371.25;5090400;28;20629;-60
2023/09/05 03:50:43;;;;;;;6.82;2.55;;;;;;;13.42;100.00;94364.38;5089497;28;20748;-60
2023/09/05 03:53:10;;;;;;;4.57;2.30;;;;;;;13.51;100.00;94361.84;5089862;28;20055;-60
2023/09/05 03:55:36;;;;;;;5.07;2.50;;;;;;;13.57;100.00;94365.66;5089443;28;20040;-60
2023/09/05 03:58:04;;;;;;;6.07;2.40;;;;;;;13.52;100.00;94375.22;5089730;28;20059;-60
2023/09/05 04:00:34;;;;;;;4.60;2.40;;;;;;;13.11;100.00;94376.31;5089553;28;20047;-60
2023/09/05 04:03:04;;;;;;;5.30;2.55;;;;;;;13.08;100.00;94371.66;5089645;28;20044;-60
2023/09/05 04:05:34;;;;;;;4.70;2.20;;;;;;;13.20;100.00;94364.75;5089363;28;20120;-60
2023/09/05 04:08:01;;;;;;;5.22;2.55;;;;;;;13.27;100.00;94369.34;5088725;28;20048;-60
2023/09/05 04:10:28;;;;;;;4.35;2.20;;;;;;;13.32;100.00;94366.13;5089520;28;20100;-60
2023/09/05 04:12:56;;;;;;;4.97;2.40;;;;;;;13.23;100.00;94369.41;5089632;28;20507;-60
2023/09/05 04:15:23;;;;;;;6.57;2.40;;;;;;;13.25;100.00;94374.50;5089170;28;20040;-60
2023/09/05 04:17:52;;;;;;;6.63;2.35;;;;;;;13.25;100.00;94367.00;5089492;28;20042;-60
2023/09/05 04:20:19;;;;;;;4.78;2.10;;;;;;;13.23;100.00;94371.41;5089123;28;20048;-60
2023/09/05 04:22:46;;;;;;;4.38;1.90;;;;;;;13.18;100.00;94365.19;5089469;28;20044;-60
2023/09/05 04:25:14;;;;;;;3.73;1.93;;;;;;;13.23;100.00;94369.41;5089419;28;20043;-60
2023/09/05 04:27:41;;;;;;;4.32;2.28;;;;;;;13.24;100.00;94365.47;5088868;28;20044;-60
2023/09/05 04:30:09;;;;;;;5.32;2.38;;;;;;;12.77;100.00;94371.75;5089072;28;20046;-60
2023/09/05 04:32:36;;;;;;;5.85;2.30;;;;;;;12.78;100.00;94367.06;5088930;28;20036;-60
2023/09/05 04:35:05;;;;;;;5.35;2.40;;;;;;;12.65;100.00;94372.34;5088649;28;20040;-60
2023/09/05 04:37:31;;;;;;;5.23;2.50;;;;;;;12.73;100.00;94378.53;5088923;28;20044;-60
2023/09/05 04:39:58;;;;;;;5.05;2.40;;;;;;;12.66;100.00;94379.44;5089196;28;20048;-61
2023/09/05 04:42:25;;;;;;;5.30;2.50;;;;;;;12.73;100.00;94384.81;5088548;28;20044;-61
2023/09/05 04:44:52;;;;;;;4.88;2.40;;;;;;;12.78;100.00;94376.09;5088952;28;20396;-61
2023/09/05 04:47:24;;;;;;;5.75;3.25;;;;;;;12.83;100.00;94371.31;5088795;28;20044;-61
2023/09/05 04:49:53;;;;;;;4.03;2.17;;;;;;;13.11;100.00;94367.28;5088559;28;20036;-60
2023/09/05 04:52:22;;;;;;;4.43;2.20;;;;;;;13.51;100.00;94362.63;5088625;28;20036;-60
2023/09/05 04:54:49;;;;;;;4.65;2.40;;;;;;;13.45;100.00;94364.31;5089070;28;20047;-61
2023/09/05 04:57:16;;;;;;;5.10;2.65;;;;;;;13.25;100.00;94357.97;5089001;28;20044;-61
2023/09/05 04:59:44;;;;;;;4.40;2.30;;;;;;;13.46;100.00;94356.81;5088158;28;21596;-61
2023/09/05 05:02:11;;;;;;;5.63;2.23;;;;;;;13.74;100.00;94352.72;5072594;28;20040;-60
2023/09/05 05:04:38;;;;;;;4.97;2.13;;;;;;;13.80;100.00;94362.03;5074885;28;20043;-61
2023/09/05 05:07:05;;;;;;;4.60;2.40;;;;;;;13.72;100.00;94363.41;5089478;28;20048;-61
2023/09/05 05:09:32;;;;;;;4.90;2.15;;;;;;;13.45;100.00;94369.84;5088672;28;20040;-61
2023/09/05 05:12:00;;;;;;;5.03;2.47;;;;;;;12.99;100.00;94371.41;5089364;28;20044;-62
2023/09/05 05:14:28;;;;;;;5.80;2.50;;;;;;;13.11;100.00;94375.53;5093772;28;20048;-61
2023/09/05 05:16:55;;;;;;;5.13;2.42;;;;;;;13.18;100.00;94383.69;5108764;28;20047;-61
2023/09/05 05:19:22;;;;;;;4.75;2.30;;;;;;;13.26;100.00;94376.06;5108563;28;20399;-61
2023/09/05 05:21:52;;;;;;;5.60;2.50;;;;;;;13.36;100.00;94383.38;5109001;28;20070;-61
2023/09/05 05:24:19;;;;;;;5.03;2.58;;;;;;;13.29;100.00;94387.06;5108718;28;20051;-61
2023/09/05 05:26:46;;;;;;;4.80;2.30;;;;;;;13.43;100.00;94380.50;5108935;28;20073;-61
2023/09/05 05:29:13;;;;;;;5.00;2.67;;;;;;;13.44;100.00;94384.81;5086954;28;20155;-61
2023/09/05 05:31:40;;;;;;;6.05;2.70;;;;;;;13.39;100.00;94397.09;5088000;28;20493;-61
2023/09/05 05:34:07;;;;;;;5.45;2.70;;;;;;;13.44;100.00;94395.84;5088407;28;20041;-61
2023/09/05 05:36:34;;;;;;;7.30;3.00;;;;;;;13.49;100.00;94400.09;5087922;28;20500;-61
2023/09/05 05:39:02;;;;;;;6.63;2.60;;;;;;;13.34;100.00;94405.06;5088287;28;20064;-61
2023/09/05 05:41:29;;;;;;;7.63;2.70;;;;;;;13.42;100.00;94397.47;5088070;28;20186;-61
2023/09/05 05:43:56;;;;;;;5.65;2.90;;;;;;;13.22;100.00;94400.94;5088097;28;20046;-61
2023/09/05 05:46:23;;;;;;;4.72;2.40;;;;;;;13.36;100.00;94400.72;5087894;28;20078;-61
2023/09/05 05:48:51;;;;;;;4.20;2.30;;;;;;;13.84;100.00;94387.56;5088548;28;20040;-62
2023/09/05 05:51:18;;;;;;;4.77;2.47;;;;;;;14.14;100.00;94399.59;5087808;28;20047;-61
2023/09/05 05:53:46;;;;;;;5.28;2.70;;;;;;;14.31;100.00;94395.66;5088576;28;20040;-61
2023/09/05 05:56:14;;;;;;;5.53;3.00;;;;;;;14.33;100.00;94406.28;5088128;28;20054;-61
2023/09/05 05:58:41;;;;;;;5.22;2.60;;;;;;;14.36;100.00;94405.41;5087997;28;20070;-61
2023/09/05 06:01:08;;;;;;;5.95;2.70;;;;;;;14.52;100.00;94404.69;5087713;28;20043;-61
2023/09/05 06:03:35;;;;;;;5.63;2.63;;;;;;;14.53;100.00;94407.03;5087858;28;20048;-62
2023/09/05 06:06:03;;;;;;;5.13;2.40;;;;;;;14.73;100.00;94406.22;5087902;28;20050;-61
2023/09/05 06:08:30;;;;;;;5.47;2.40;;;;;;;14.97;100.00;94404.84;5087766;28;20108;-61
2023/09/05 06:10:57;;;;;;;4.40;2.40;;;;;;;15.29;100.00;94410.75;5087840;28;20048;-62
2023/09/05 06:13:24;;;;;;;3.90;2.00;;;;;;;15.53;100.00;94405.78;5087966;28;20043;-62
2023/09/05 06:15:52;;;;;;;4.03;1.90;;;;;;;15.66;100.00;94409.41;5088423;28;20044;-61
2023/09/05 06:18:19;;;;;;;5.20;2.20;;;;;;;15.81;100.00;94409.03;5092932;28;20043;-60
2023/09/05 06:20:46;;;;;;;4.18;2.17;;;;;;;15.92;96.28;94407.53;5102572;28;20156;-60
2023/09/05 06:23:13;;;;;;;3.90;2.10;;;;;;;15.96;97.41;94408.22;5108318;28;20052;-61
2023/09/05 06:25:40;;;;;;;5.10;2.38;;;;;;;15.93;99.78;94411.06;5107895;28;20065;-61
2023/09/05 06:28:07;;;;;;;4.23;2.30;;;;;;;16.06;99.65;94408.34;5097111;28;20045;-62
2023/09/05 06:30:34;;;;;;;4.20;2.10;;;;;;;16.22;94.71;94415.78;5088548;28;20039;-62
2023/09/05 06:33:01;;;;;;;5.25;2.47;;;;;;;16.33;96.11;94414.25;5089726;28;20058;-60
2023/09/05 06:35:28;;;;;;;4.28;2.20;;;;;;;16.44;92.85;94422.28;5090594;28;20052;-61
2023/09/05 06:37:57;;;;;;;5.18;2.15;;;;;;;16.59;93.44;94414.31;5091793;28;20044;-61
2023/09/05 06:40:24;;;;;;;4.00;2.20;;;;;;;16.72;94.92;94417.88;5087314;28;20036;-60
2023/09/05 06:42:53;;;;;;;4.53;2.50;;;;;;;16.89;92.73;94418.53;5091652;28;20038;-61
2023/09/05 06:45:20;;;;;;;4.50;2.33;;;;;;;17.10;91.67;94417.09;5090587;28;20051;-62
2023/09/05 06:47:47;;;;;;;4.70;2.33;;;;;;;18.68;88.91;94405.97;5093158;28;20040;-61
2023/09/05 06:50:14;;;;;;;4.10;2.20;;;;;;;22.75;73.89;94402.75;5089601;28;20040;-62
2023/09/05 06:52:41;;;;;;;4.23;2.40;;;;;;;25.41;60.35;94398.16;5090836;28;20505;-63
2023/09/05 06:55:08;;;;;;;4.20;2.20;;;;;;;27.54;52.21;94399.19;5096594;28;20172;-62
2023/09/05 06:57:35;;;;;;;4.13;2.20;;;;;;;29.23;41.60;94389.84;5103701;27;20036;-59
2023/09/05 07:00:02;;;;;;;3.65;2.20;;;;;;;29.38;38.95;94387.41;5110965;28;20036;-60
2023/09/05 07:02:30;;;;;;;4.32;2.40;;;;;;;29.92;37.38;94396.38;5110246;28;20060;-60
2023/09/05 07:04:56;;;;;;;3.40;2.20;;;;;;;29.92;36.47;94382.97;5110928;28;20047;-60
2023/09/05 07:07:25;;;;;;;3.83;2.30;;;;;;;29.96;34.96;94382.69;5111201;28;20040;-59
2023/09/05 07:09:52;;;;;;;3.97;2.40;;;;;;;29.23;37.05;94389.84;5111584;28;20039;-60
2023/09/05 07:12:19;;;;;;;4.22;2.40;;;;;;;30.40;35.93;94391.94;5110968;28;20052;-59
2023/09/05 07:14:46;;;;;;;11.32;2.45;;;;;;;32.22;32.44;94388.38;5111200;28;20043;-60
2023/09/05 07:17:13;;;;;;;3.33;2.30;;;;;;;33.30;31.92;94390.34;5111286;28;20044;-60
2023/09/05 07:19:39;;;;;;;4.63;2.40;;;;;;;32.78;30.51;94383.56;5111055;27;20047;-60
2023/09/05 07:22:07;;;;;;;3.40;2.40;;;;;;;34.10;28.80;94380.50;5111188;28;20043;-60
2023/09/05 07:24:34;;;;;;;3.70;2.30;;;;;;;34.21;29.02;94375.28;5110772;27;20054;-60
2023/09/05 07:27:01;;;;;;;3.75;2.50;;;;;;;33.22;29.98;94376.06;5109305;28;20046;-60
2023/09/05 07:29:28;;;;;;;3.67;2.40;;;;;;;32.27;32.52;94378.97;5090383;28;20052;-60
2023/09/05 07:31:55;;;;;;;4.25;2.90;;;;;;;32.91;30.72;94374.22;5090687;28;20048;-63
2023/09/05 07:34:22;;;;;;;4.75;2.30;;;;;;;31.03;31.94;94382.00;5089906;28;20056;-60
2023/09/05 07:36:48;;;;;;;6.70;2.67;;;;;;;30.98;33.49;94377.19;5090475;28;20057;-61
2023/09/05 07:39:15;;;;;;;4.25;2.60;;;;;;;34.18;30.14;94369.94;5090384;28;20048;-61
2023/09/05 07:41:42;;;;;;;4.20;2.27;;;;;;;33.81;29.97;94374.84;5089922;28;20093;-60
2023/09/05 07:44:09;;;;;;;4.38;2.50;;;;;;;33.32;30.88;94375.56;5090170;28;20035;-60
2023/09/05 07:46:35;;;;;;;3.45;2.40;;;;;;;35.43;28.69;94372.56;5089972;28;20050;-60
2023/09/05 07:49:04;;;;;;;5.28;2.40;;;;;;;35.65;27.99;94377.50;5090276;28;20364;-60
2023/09/05 07:51:30;;;;;;;3.88;2.38;;;;;;;34.67;28.79;94383.28;5088687;28;20073;-60
2023/09/05 07:54:06;;;;;;;4.13;2.50;;;;;;;35.13;27.51;94383.34;5090389;28;20044;-60
2023/09/05 07:56:33;;;;;;;3.83;2.40;;;;;;;34.49;28.75;94378.59;5089806;28;20507;-60
2023/09/05 07:59:00;;;;;;;3.53;2.50;;;;;;;27.93;37.81;94387.81;5090465;28;20050;-60
2023/09/05 08:01:27;;;;;;;4.40;2.50;;;;;;;31.21;34.47;94390.97;5089648;28;20036;-60
2023/09/05 08:03:53;;;;;;;3.60;2.50;;;;;;;32.32;33.50;94380.19;5090230;28;20055;-60
2023/09/05 08:06:21;;;;;;;3.63;2.47;;;;;;;34.18;30.93;94387.03;5088898;28;20040;-60
2023/09/05 08:08:47;;;;;;;4.15;2.50;;;;;;;36.12;28.27;94384.69;5090229;28;20040;-60
2023/09/05 08:11:15;;;;;;;3.88;2.28;;;;;;;34.69;30.04;94389.19;5089675;28;20065;-62
2023/09/05 08:13:41;;;;;;;5.25;2.30;;;;;;;36.79;27.47;94381.44;5089554;28;20040;-60
2023/09/05 08:16:10;;;;;;;3.85;2.53;;;;;;;36.48;27.50;94377.91;5089456;28;20112;-60
2023/09/05 08:18:37;;;;;;;3.30;2.10;;;;;;;35.81;28.67;94381.13;5089513;28;20414;-60
2023/09/05 08:21:04;;;;;;;4.10;2.63;;;;;;;35.32;28.77;94383.03;5089825;28;20032;-60
2023/09/05 08:23:31;;;;;;;3.50;2.30;;;;;;;37.26;26.36;94373.34;5089349;28;20073;-60
2023/09/05 08:25:59;;;;;;;3.33;2.40;;;;;;;34.92;28.22;94371.34;5089751;28;20048;-60
2023/09/05 08:28:32;;;;;;;4.13;2.70;;;;;;;29.42;36.43;94379.38;5088641;28;20412;-60
2023/09/05 08:31:00;;;;;;;5.00;2.40;;;;;;;35.96;28.64;94372.53;5085622;28;20056;-60
2023/09/05 08:33:30;;;;;;;3.35;2.40;;;;;;;37.03;27.13;94375.56;5089357;28;20054;-60
2023/09/05 08:35:57;;;;;;;3.15;2.30;;;;;;;36.73;27.70;94375.19;5089708;28;20523;-60
2023/09/05 08:38:24;;;;;;;3.75;2.30;;;;;;;36.68;27.03;94376.16;5088756;28;20058;-61
2023/09/05 08:40:55;;;;;;;3.60;2.40;;;;;;;37.34;26.89;94370.44;5089536;28;20035;-60
2023/09/05 08:43:22;;;;;;;3.83;2.40;;;;;;;37.76;25.95;94373.34;5088380;28;20052;-60
2023/09/05 08:45:51;;;;;;;3.67;2.40;;;;;;;33.73;30.24;94380.47;5089258;28;20052;-61
2023/09/05 08:48:18;;;;;;;4.15;2.58;;;;;;;32.32;31.99;94385.88;5088976;28;20032;-60
2023/09/05 08:50:45;;;;;;;3.70;2.47;;;;;;;33.54;31.41;94368.53;5089451;28;20046;-60
2023/09/05 08:53:15;;;;;;;4.95;2.30;;;;;;;33.78;30.90;94376.69;5088740;28;20044;-61
2023/09/05 08:55:43;;;;;;;3.73;2.60;;;;;;;36.09;28.23;94385.09;5088303;28;20851;-61
2023/09/05 08:58:13;;;;;;;4.35;2.42;;;;;;;36.52;26.67;94366.09;5089319;28;20046;-61
2023/09/05 09:00:40;;;;;;;3.47;2.60;;;;;;;35.86;28.32;94376.53;5088533;28;20081;-60
2023/09/05 09:03:07;;;;;;;4.60;2.30;;;;;;;34.65;29.23;94380.19;5089033;28;20036;-60
2023/09/05 09:05:36;;;;;;;4.15;2.28;;;;;;;33.98;30.13;94371.50;5088448;28;20433;-60
2023/09/05 09:08:03;;;;;;;4.87;2.40;;;;;;;30.16;35.43;94376.50;5089148;28;20044;-60
2023/09/05 09:10:30;;;;;;;3.30;2.38;;;;;;;33.52;31.55;94366.25;5088905;28;20040;-60
2023/09/05 09:13:17;;;;;;;5.13;2.35;;;;;;;33.07;30.94;94372.28;5089241;28;20036;-61
2023/09/05 09:15:46;;;;;;;3.15;2.20;;;;;;;36.80;28.25;94373.59;5088289;28;20269;-61
2023/09/05 09:18:14;;;;;;;3.50;2.40;;;;;;;36.54;27.15;94383.44;5088898;28;20042;-60
2023/09/05 09:20:44;;;;;;;3.10;2.20;;;;;;;35.73;28.00;94383.25;5088378;28;20042;-60
2023/09/05 09:23:11;;;;;;;3.75;2.17;;;;;;;33.53;30.96;94384.84;5088723;28;20044;-60
2023/09/05 09:25:47;;;;;;;3.75;2.10;;;;;;;35.57;29.14;94374.66;5088556;28;20043;-61
2023/09/05 09:28:40;;;;;;;2.92;2.03;;;;;;;34.87;29.00;94367.34;5088685;28;20047;-61
2023/09/05 09:31:12;;;;;;;3.67;2.20;;;;;;;32.57;32.34;94367.22;5085401;28;20754;-60
2023/09/05 09:33:41;;;;;;;3.23;2.23;;;;;;;35.93;29.19;94367.22;5088405;28;20044;-60
2023/09/05 09:36:09;;;;;;;4.32;2.30;;;;;;;33.94;30.73;94365.41;5088324;28;20036;-60
2023/09/05 09:38:36;;;;;;;2.80;2.05;;;;;;;33.79;30.56;94358.31;5088469;28;20462;-61
2023/09/05 09:41:04;;;;;;;3.15;1.98;;;;;;;32.99;31.72;94364.44;5088933;28;20040;-61
2023/09/05 09:43:32;;;;;;;3.88;2.30;;;;;;;33.88;31.18;94362.72;5088166;28;20062;-60
2023/09/05 09:46:00;;;;;;;4.50;2.17;;;;;;;32.96;32.12;94361.94;5088582;28;20044;-60
2023/09/05 09:48:29;;;;;;;3.22;2.10;;;;;;;35.16;29.46;94358.69;5088017;28;20081;-60
2023/09/05 09:50:57;;;;;;;3.65;1.92;;;;;;;33.86;29.69;94347.53;5088649;28;20048;-61
2023/09/05 09:53:35;;;;;;;3.33;2.00;;;;;;;34.05;30.34;94355.78;5087917;28;20381;-60
2023/09/05 09:56:08;;;;;;;2.53;1.60;;;;;;;32.75;31.42;94351.31;5088504;28;20044;-61
2023/09/05 09:58:38;;;;;;;2.70;1.90;;;;;;;32.25;33.27;94356.03;5088109;28;20554;-60
2023/09/05 10:01:06;;;;;;;2.90;1.80;;;;;;;32.86;31.32;94352.38;5088688;28;20412;-60
2023/09/05 10:03:34;;;;;;;3.75;1.70;;;;;;;32.82;31.78;94356.34;5087742;28;20046;-60
2023/09/05 10:06:04;;;;;;;2.80;2.10;;;;;;;31.94;32.80;94344.28;5090609;28;20058;-60
2023/09/05 10:08:32;;;;;;;2.88;1.85;;;;;;;28.59;36.23;94345.63;5091656;28;20050;-61
2023/09/05 10:11:00;;;;;;;3.47;1.97;;;;;;;31.35;33.36;94343.56;5092202;28;20048;-60
2023/09/05 10:13:32;;;;;;;2.70;1.80;;;;;;;30.77;34.78;94353.56;5091375;28;20507;-60
2023/09/05 10:16:03;;;;;;;3.20;1.80;;;;;;;31.77;33.85;94341.75;5092168;28;20416;-60
2023/09/05 10:18:31;;;;;;;2.60;1.70;;;;;;;33.89;31.18;94332.94;5091355;28;20044;-60
2023/09/05 10:21:00;;;;;;;3.53;2.00;;;;;;;32.22;33.02;94338.03;5091849;28;20047;-61
2023/09/05 10:23:33;;;;;;;3.13;1.83;;;;;;;31.95;33.14;94339.34;5091369;28;20067;-60
2023/09/05 10:26:05;;;;;;;3.60;1.83;;;;;;;31.12;34.70;94346.03;5092357;28;20046;-60
2023/09/05 10:28:32;;;;;;;2.97;1.90;;;;;;;29.35;36.51;94325.50;5091183;28;20051;-60
2023/09/05 10:31:12;;;;;;;3.50;1.88;;;;;;;31.36;34.07;94328.84;5092102;28;20042;-63
2023/09/05 10:33:43;;;;;;;2.90;1.70;;;;;;;28.92;35.76;94337.44;5091613;28;20032;-61
2023/09/05 10:36:39;;;;;;;2.80;1.80;;;;;;;31.47;34.47;94330.72;5091777;28;20048;-61
2023/09/05 10:39:27;;;;;;;2.72;1.80;;;;;;;32.32;32.24;94329.81;5090772;28;20498;-61
2023/09/05 10:41:53;;;;;;;3.75;1.88;;;;;;;32.61;34.01;94318.59;5090895;28;20563;-61
2023/09/05 10:44:24;;;;;;;3.28;2.10;;;;;;;31.21;34.89;94317.25;5091062;28;20056;-61
2023/09/05 10:46:53;;;;;;;2.80;1.75;;;;;;;36.23;29.13;94314.22;5091701;28;20048;-61
2023/09/05 10:49:21;;;;;;;2.97;1.77;;;;;;;35.99;28.02;94310.66;5091103;28;20052;-61
2023/09/05 10:52:14;;;;;;;3.53;1.80;;;;;;;35.69;29.61;94312.25;5091550;28;20085;-62
2023/09/05 10:54:41;;;;;;;2.67;1.70;;;;;;;34.79;29.24;94318.09;5091298;28;20619;-62
2023/09/05 10:57:37;;;;;;;2.83;1.50;;;;;;;33.15;30.07;94308.50;5091522;28;20036;-62
2023/09/05 11:00:16;;;;;;;2.70;1.70;;;;;;;33.47;31.69;94298.88;5090638;28;20434;-62
2023/09/05 11:02:45;;;;;;;3.00;1.80;;;;;;;33.18;33.05;94304.56;5091112;28;20232;-61
2023/09/05 11:05:12;;;;;;;3.15;1.75;;;;;;;32.62;32.76;94300.25;5091176;28;20052;-61
2023/09/05 11:07:43;;;;;;;3.72;1.70;;;;;;;32.70;32.61;94301.09;5090919;28;20093;-61
2023/09/05 11:10:14;;;;;;;3.17;1.67;;;;;;;32.06;31.70;94302.25;5091085;28;20044;-61
2023/09/05 11:12:40;;;;;;;2.67;1.80;;;;;;;30.97;35.15;94296.31;5090759;28;20040;-62
2023/09/05 11:15:08;;;;;;;2.97;1.80;;;;;;;30.71;36.34;94296.97;5091202;28;20412;-61
2023/09/05 11:17:36;;;;;;;2.80;1.70;;;;;;;30.51;34.00;94301.16;5089494;28;20443;-61
2023/09/05 11:20:05;;;;;;;2.80;1.67;;;;;;;29.83;36.54;94302.06;5090853;28;20044;-61
2023/09/05 11:22:33;;;;;;;3.05;1.67;;;;;;;30.34;35.02;94304.22;5090424;28;20054;-61
2023/09/05 11:25:03;;;;;;;3.22;1.80;;;;;;;28.73;37.78;94286.50;5090794;28;20413;-61
2023/09/05 11:27:31;;;;;;;3.00;1.83;;;;;;;29.27;37.97;94282.91;5090144;28;20404;-61
2023/09/05 11:30:00;;;;;;;2.78;1.70;;;;;;;29.85;37.24;94296.63;5090856;28;20032;-61
2023/09/05 11:32:29;;;;;;;3.33;1.63;;;;;;;29.81;34.86;94292.59;5089984;28;20074;-60
2023/09/05 11:34:56;;;;;;;2.92;1.70;;;;;;;29.26;35.06;94301.19;5090435;28;20050;-61
2023/09/05 11:37:23;;;;;;;3.78;1.70;;;;;;;28.45;37.50;94298.75;5089555;28;20462;-60
2023/09/05 11:39:51;;;;;;;3.97;1.80;;;;;;;27.21;38.63;94302.88;5090623;28;20044;-61